Time;durP1;ratioP1;P1;durP2;ratioP2;P2;SDS_P1;SDS_P2;PMS_P1;PMS_P2;Temp;Humidity;BMP_temperature;BMP_pressure;BME280_temperature;BME280_humidity;BME280_pressure;Samples;Min_cycle;Max_cycle;Signal;HPM_P1;HPM_P2
2023/01/16 00:00:20;;;;;;;17.00;9.38;;;;;;;-0.77;74.20;94723.53;5094537;28;20155;-71
2023/01/16 00:02:46;;;;;;;22.27;11.25;;;;;;;-0.80;73.80;94719.38;5111906;28;20038;-71
2023/01/16 00:05:11;;;;;;;14.93;8.63;;;;;;;-0.94;74.45;94698.69;5111925;28;20028;-71
2023/01/16 00:07:37;;;;;;;17.90;11.55;;;;;;;-0.91;74.42;94717.25;5111774;28;20036;-71
2023/01/16 00:10:04;;;;;;;20.73;13.60;;;;;;;-0.92;74.60;94709.63;5094992;28;20034;-71
2023/01/16 00:12:29;;;;;;;12.95;8.80;;;;;;;-1.01;74.86;94712.56;5110987;28;20391;-71
2023/01/16 00:14:55;;;;;;;14.75;9.15;;;;;;;-1.02;74.72;94714.28;5112973;28;20081;-71
2023/01/16 00:17:20;;;;;;;15.52;8.80;;;;;;;-0.94;74.53;94714.81;5112038;28;20043;-71
2023/01/16 00:19:45;;;;;;;16.30;8.45;;;;;;;-1.00;74.81;94721.91;5112773;28;20035;-71
2023/01/16 00:22:11;;;;;;;15.90;9.40;;;;;;;-0.97;74.12;94717.50;5094483;28;20028;-71
2023/01/16 00:24:36;;;;;;;14.13;7.80;;;;;;;-0.95;74.23;94718.28;5094581;28;20024;-71
2023/01/16 00:27:02;;;;;;;14.38;8.35;;;;;;;-0.90;73.85;94718.06;5077777;28;20129;-71
2023/01/16 00:29:27;;;;;;;11.90;7.07;;;;;;;-0.90;73.72;94720.63;5111332;28;20055;-71
2023/01/16 00:31:53;;;;;;;12.40;7.30;;;;;;;-0.95;73.85;94713.16;5094471;28;20038;-71
2023/01/16 00:34:18;;;;;;;11.05;6.72;;;;;;;-0.97;74.09;94707.28;5111390;28;20481;-71
2023/01/16 00:36:44;;;;;;;12.45;7.03;;;;;;;-0.98;74.44;94705.63;5094446;28;20039;-71
2023/01/16 00:39:09;;;;;;;11.73;6.57;;;;;;;-1.01;74.35;94693.00;5094234;28;20619;-70
2023/01/16 00:41:35;;;;;;;12.77;7.72;;;;;;;-1.02;74.18;94693.88;5094372;28;20061;-70
2023/01/16 00:44:00;;;;;;;13.50;7.60;;;;;;;-1.06;73.72;94686.41;5111033;28;20439;-70
2023/01/16 00:46:26;;;;;;;12.70;7.90;;;;;;;-1.00;73.54;94689.56;5111283;28;20019;-70
2023/01/16 00:48:51;;;;;;;13.73;8.35;;;;;;;-1.06;74.13;94684.69;5094136;28;20039;-71
2023/01/16 00:51:16;;;;;;;13.25;7.15;;;;;;;-1.17;74.41;94674.09;5111066;28;20027;-70
2023/01/16 00:53:42;;;;;;;15.40;7.50;;;;;;;-1.18;73.93;94673.25;5093936;28;20032;-70
2023/01/16 00:56:08;;;;;;;13.60;8.05;;;;;;;-1.07;74.35;94679.66;5111109;28;20508;-71
2023/01/16 00:58:34;;;;;;;14.07;7.57;;;;;;;-1.10;74.76;94677.25;5077044;28;20024;-70
2023/01/16 01:01:00;;;;;;;13.77;8.00;;;;;;;-1.22;75.13;94670.91;5112503;28;20027;-71
2023/01/16 01:03:27;;;;;;;12.75;7.13;;;;;;;-1.19;75.01;94658.88;5111986;28;20482;-71
2023/01/16 01:05:52;;;;;;;11.20;6.75;;;;;;;-1.07;74.71;94674.56;5110806;28;20055;-71
2023/01/16 01:08:18;;;;;;;12.50;7.45;;;;;;;-1.17;74.82;94668.97;5111891;28;20477;-71
2023/01/16 01:10:43;;;;;;;12.80;7.38;;;;;;;-1.13;74.74;94678.19;5111844;28;20034;-70
2023/01/16 01:13:09;;;;;;;13.13;7.80;;;;;;;-1.13;74.41;94679.00;5110577;28;20024;-70
2023/01/16 01:15:34;;;;;;;15.30;8.27;;;;;;;-1.08;74.30;94673.75;5076669;28;20027;-70
2023/01/16 01:18:00;;;;;;;12.45;7.53;;;;;;;-1.13;74.68;94679.00;5110536;28;20031;-70
2023/01/16 01:20:25;;;;;;;12.15;7.22;;;;;;;-1.18;74.62;94667.34;5144920;27;20043;-70
2023/01/16 01:22:51;;;;;;;11.80;7.38;;;;;;;-1.14;74.46;94674.81;5110342;28;20089;-71
2023/01/16 01:25:16;;;;;;;11.52;7.57;;;;;;;-1.17;75.04;94674.09;5110334;28;20030;-71
2023/01/16 01:27:42;;;;;;;12.63;7.85;;;;;;;-1.18;74.15;94670.72;5144749;27;20031;-71
2023/01/16 01:30:08;;;;;;;11.48;8.00;;;;;;;-1.03;74.07;94683.75;5127771;27;20054;-71
2023/01/16 01:32:36;;;;;;;14.27;8.07;;;;;;;-1.04;73.35;94672.72;5127200;27;20477;-71
2023/01/16 01:35:02;;;;;;;15.32;8.25;;;;;;;-1.14;73.60;94668.88;5143912;27;20028;-71
2023/01/16 01:37:27;;;;;;;12.63;8.23;;;;;;;-1.21;73.83;94658.09;5127563;27;20024;-71
2023/01/16 01:39:53;;;;;;;13.57;7.68;;;;;;;-1.17;74.53;94658.78;5144556;27;20031;-70
2023/01/16 01:45:11;;;;;;;17.10;8.43;;;;;;;-0.96;75.84;94650.28;5124920;27;20038;-70
2023/01/16 01:47:37;;;;;;;13.82;7.82;;;;;;;-1.07;74.59;94644.78;5093421;28;20052;-70
2023/01/16 01:50:10;;;;;;;12.85;6.70;;;;;;;-1.10;74.73;94644.91;5127221;27;20066;-71
2023/01/16 01:52:35;;;;;;;19.70;10.13;;;;;;;-1.18;74.49;94621.44;5110054;28;20023;-70
2023/01/16 01:55:03;;;;;;;14.32;8.75;;;;;;;-1.15;74.81;94626.41;5109907;28;20027;-70
2023/01/16 01:57:32;;;;;;;15.32;8.93;;;;;;;-1.10;74.90;94619.41;5144356;27;20036;-70
2023/01/16 02:00:10;;;;;;;14.95;7.55;;;;;;;-1.04;75.18;94633.63;5110059;28;20096;-70
2023/01/16 02:02:37;;;;;;;14.43;7.80;;;;;;;-1.03;76.45;94627.63;5127100;28;20039;-70
2023/01/16 02:05:06;;;;;;;12.18;7.47;;;;;;;-0.87;77.24;94627.84;5126835;28;20038;-71
2023/01/16 02:07:32;;;;;;;12.90;7.20;;;;;;;-0.80;77.75;94622.44;5144276;27;20020;-70
2023/01/16 02:10:34;;;;;;;11.50;7.15;;;;;;;-0.69;78.08;94616.88;5126999;28;20406;-70
2023/01/16 02:13:00;;;;;;;12.57;7.13;;;;;;;-0.54;77.21;94613.66;5059057;28;20135;-70
2023/01/16 02:15:25;;;;;;;12.90;7.68;;;;;;;-0.59;77.11;94610.47;5092906;28;20032;-70
2023/01/16 02:20:48;;;;;;;13.65;8.27;;;;;;;-0.70;76.17;94598.22;5089642;28;20035;-70
2023/01/16 02:23:41;;;;;;;14.57;7.25;;;;;;;-0.64;75.79;94611.56;5125199;27;20085;-70
2023/01/16 02:26:21;;;;;;;12.77;7.55;;;;;;;-0.55;74.81;94606.09;5094829;28;20105;-70
2023/01/16 02:29:14;;;;;;;13.55;7.47;;;;;;;-0.56;74.91;94602.69;5125200;27;20056;-70
2023/01/16 02:32:01;;;;;;;11.68;7.32;;;;;;;-0.55;74.43;94599.28;5094836;28;20507;-70
2023/01/16 02:35:12;;;;;;;14.02;8.82;;;;;;;-0.65;74.45;94600.53;5094604;28;20032;-70
2023/01/16 02:37:43;;;;;;;13.95;8.30;;;;;;;-0.65;75.03;94604.81;5090963;28;20040;-70
2023/01/16 02:40:27;;;;;;;12.75;7.55;;;;;;;-0.62;74.84;94592.75;5094528;28;20067;-71
2023/01/16 02:43:15;;;;;;;13.30;7.28;;;;;;;-0.62;75.14;94590.19;5127163;27;20119;-71
2023/01/16 02:45:47;;;;;;;12.02;7.03;;;;;;;-0.50;75.27;94588.88;5094429;28;20043;-71
2023/01/16 02:48:44;;;;;;;12.23;7.35;;;;;;;-0.58;75.02;94594.31;5127265;27;20386;-70
2023/01/16 02:51:28;;;;;;;13.52;8.10;;;;;;;-0.67;74.99;94594.66;5074292;28;20036;-70
2023/01/16 02:53:59;;;;;;;17.35;10.52;;;;;;;-0.81;74.91;94589.31;5091000;28;20031;-70
2023/01/16 02:56:32;;;;;;;22.02;14.13;;;;;;;-0.71;74.54;94595.72;5109758;28;20047;-70
2023/01/16 02:58:57;;;;;;;17.83;11.70;;;;;;;-0.72;74.97;94594.06;5092586;28;20043;-70
2023/01/16 03:01:23;;;;;;;21.65;12.02;;;;;;;-0.83;75.04;94591.13;5092995;28;20035;-70
2023/01/16 03:03:54;;;;;;;18.00;12.07;;;;;;;-0.75;74.20;94578.88;5126759;27;20039;-70
2023/01/16 03:06:20;;;;;;;;;;;;;;;-0.79;74.94;94587.53;5094665;28;20032;-70
2023/01/16 03:09:10;;;;;;;14.38;8.20;;;;;;;-0.87;75.16;94570.00;5093839;28;19916;-70
2023/01/16 03:11:58;;;;;;;12.25;7.15;;;;;;;-0.91;75.49;94579.53;5108795;28;20035;-70
2023/01/16 03:14:36;;;;;;;9.50;6.50;;;;;;;-0.90;75.74;94568.41;5074022;28;20410;-70
2023/01/16 03:17:07;;;;;;;12.50;7.45;;;;;;;-0.83;75.20;94558.81;5109271;28;20020;-70
2023/01/16 03:19:41;;;;;;;;;;;;;;;-0.76;75.06;94561.91;5145003;27;20032;-70
2023/01/16 03:22:12;;;;;;;10.15;6.18;;;;;;;-0.71;74.90;94549.78;5112881;28;19916;-70
2023/01/16 03:24:55;;;;;;;;;;;;;;;-0.86;74.70;94564.03;5113163;28;20100;-70
2023/01/16 03:27:27;;;;;;;10.88;6.70;;;;;;;-0.92;75.27;94562.56;5095922;28;19916;-70
2023/01/16 03:29:54;;;;;;;;;;;;;;;-0.99;75.56;94558.59;5114114;28;20163;-70
2023/01/16 03:32:33;;;;;;;13.13;7.00;;;;;;;-1.01;75.13;94549.38;5113982;28;20388;-70
2023/01/16 03:35:02;;;;;;;11.77;6.90;;;;;;;-1.00;75.39;94545.94;5094221;28;20398;-70
2023/01/16 03:37:36;;;;;;;12.48;7.25;;;;;;;-1.01;75.49;94537.44;5094401;28;20023;-70
2023/01/16 03:40:03;;;;;;;11.10;6.30;;;;;;;-0.89;74.41;94541.22;5078106;28;20027;-70
2023/01/16 03:42:57;;;;;;;11.27;7.10;;;;;;;-0.93;74.57;94544.78;5094139;28;20114;-70
2023/01/16 03:45:44;;;;;;;13.02;7.30;;;;;;;-1.01;75.14;94527.25;5089534;27;20130;-71
2023/01/16 03:48:12;;;;;;;12.65;6.95;;;;;;;-1.02;75.15;94515.38;5105493;28;20032;-71
2023/01/16 03:50:37;;;;;;;12.75;7.03;;;;;;;-0.98;74.62;94516.91;5109546;28;20385;-71
2023/01/16 03:53:07;;;;;;;11.55;7.07;;;;;;;-1.00;75.20;94512.78;5091145;28;20497;-71
2023/01/16 03:55:39;;;;;;;11.27;6.82;;;;;;;-0.86;74.03;94520.69;5090796;28;20153;-70
2023/01/16 03:58:13;;;;;;;12.30;6.95;;;;;;;-1.17;74.56;94480.34;5092175;28;20040;-70
2023/01/16 04:01:08;;;;;;;12.43;6.78;;;;;;;-1.04;75.19;94511.25;5073503;28;20047;-70
2023/01/16 04:03:41;;;;;;;13.23;7.15;;;;;;;-1.04;74.66;94499.31;5092882;28;20122;-70
2023/01/16 04:06:16;;;;;;;13.35;7.40;;;;;;;-0.97;74.44;94487.97;5073966;28;20064;-69
2023/01/16 04:08:42;;;;;;;10.00;5.85;;;;;;;-1.06;74.57;94493.44;5091037;28;20090;-70
2023/01/16 04:11:07;;;;;;;10.60;6.38;;;;;;;-1.16;74.54;94485.38;5090786;28;20478;-70
2023/01/16 04:13:34;;;;;;;11.70;6.97;;;;;;;-1.09;74.75;94498.69;5090847;28;20031;-70
2023/01/16 04:16:01;;;;;;;11.43;6.25;;;;;;;-1.11;74.64;94492.84;5107298;28;20032;-70
2023/01/16 04:18:30;;;;;;;13.45;6.85;;;;;;;-1.00;74.13;94502.59;5089855;28;20038;-70
2023/01/16 04:20:55;;;;;;;11.73;6.78;;;;;;;-1.08;74.46;94502.09;5073827;28;20122;-71
2023/01/16 04:23:21;;;;;;;13.13;7.78;;;;;;;-1.10;74.86;94504.69;5073929;28;20118;-71
2023/01/16 04:25:46;;;;;;;11.55;7.45;;;;;;;-1.15;74.44;94498.94;5107036;28;20080;-70
2023/01/16 04:28:12;;;;;;;11.65;6.60;;;;;;;-1.13;74.79;94497.16;5090811;28;20067;-70
2023/01/16 04:30:37;;;;;;;13.30;7.00;;;;;;;-1.17;74.51;94495.63;5073160;28;20400;-71
2023/01/16 04:33:03;;;;;;;11.65;6.85;;;;;;;-1.19;74.99;94502.53;5108009;28;20137;-70
2023/01/16 04:35:29;;;;;;;14.57;8.00;;;;;;;-1.29;74.62;94502.06;5107097;28;20485;-71
2023/01/16 04:37:54;;;;;;;11.63;7.28;;;;;;;-1.16;74.46;94494.75;5090694;28;20157;-70
2023/01/16 04:40:20;;;;;;;11.57;7.28;;;;;;;-1.25;74.48;94484.97;5107257;28;20023;-71
2023/01/16 04:42:45;;;;;;;23.10;15.60;;;;;;;-1.23;74.34;94498.44;5073343;28;20655;-70
2023/01/16 04:45:11;;;;;;;17.58;10.85;;;;;;;-1.47;74.67;94462.09;5089230;28;20055;-71
2023/01/16 04:47:36;;;;;;;17.23;11.07;;;;;;;-1.27;74.85;94499.47;5109248;28;20028;-71
2023/01/16 04:50:02;;;;;;;18.67;11.35;;;;;;;-1.20;74.01;94495.75;5105402;28;20040;-70
2023/01/16 04:52:27;;;;;;;15.68;9.93;;;;;;;-1.34;74.48;94481.03;5108970;28;20080;-70
2023/01/16 04:54:53;;;;;;;18.08;12.38;;;;;;;-1.30;74.41;94489.41;5106563;28;20112;-70
2023/01/16 04:57:18;;;;;;;87.82;33.60;;;;;;;-1.33;74.83;94489.53;5090797;28;20035;-71
2023/01/16 04:59:44;;;;;;;52.42;23.75;;;;;;;-1.24;75.09;94491.69;5107580;28;20032;-71
2023/01/16 05:02:09;;;;;;;42.63;19.25;;;;;;;-1.22;75.02;94477.19;5109145;28;20458;-70
2023/01/16 05:04:35;;;;;;;55.67;21.33;;;;;;;-1.22;74.31;94483.09;5089756;28;20581;-71
2023/01/16 05:07:00;;;;;;;37.72;16.63;;;;;;;-1.33;74.32;94484.44;5106435;28;20451;-70
2023/01/16 05:09:26;;;;;;;48.05;19.95;;;;;;;-1.45;74.28;94471.31;5105553;28;20032;-71
2023/01/16 05:11:51;;;;;;;46.03;17.75;;;;;;;-1.42;74.28;94481.38;5106835;28;20036;-70
2023/01/16 05:14:16;;;;;;;38.88;17.88;;;;;;;-1.41;74.26;94477.13;5090081;28;20054;-70
2023/01/16 05:16:42;;;;;;;21.77;11.77;;;;;;;-1.44;74.49;94483.16;5108151;28;20030;-71
2023/01/16 05:19:07;;;;;;;24.35;12.00;;;;;;;-1.49;74.23;94469.78;5104829;28;20034;-71
2023/01/16 05:21:33;;;;;;;23.27;12.73;;;;;;;-1.52;74.17;94458.91;5091087;28;20164;-71
2023/01/16 05:23:58;;;;;;;16.65;9.45;;;;;;;-1.64;74.26;94450.03;5089771;28;20032;-71
2023/01/16 05:26:24;;;;;;;14.00;8.43;;;;;;;-1.59;73.83;94458.31;5089767;28;20031;-71
2023/01/16 05:28:49;;;;;;;12.93;7.57;;;;;;;-1.61;73.82;94458.38;5088547;28;20135;-71
2023/01/16 05:31:15;;;;;;;12.98;7.78;;;;;;;-1.55;74.01;94457.31;5107195;28;20450;-70
2023/01/16 05:33:42;;;;;;;12.65;7.35;;;;;;;-1.63;73.61;94444.06;5089520;28;20082;-71
2023/01/16 05:36:07;;;;;;;15.60;8.85;;;;;;;-1.66;74.16;94449.28;5089282;28;20027;-70
2023/01/16 05:38:33;;;;;;;15.20;8.73;;;;;;;-1.49;73.11;94451.13;5071024;28;20031;-70
2023/01/16 05:40:58;;;;;;;15.32;9.30;;;;;;;-1.55;73.56;94444.56;5106225;28;20054;-70
2023/01/16 05:43:24;;;;;;;12.45;8.02;;;;;;;-1.58;74.10;94447.25;5089242;28;20038;-70
2023/01/16 05:45:49;;;;;;;11.60;6.55;;;;;;;-1.76;74.81;94437.78;5072514;28;20039;-70
2023/01/16 05:48:15;;;;;;;11.13;6.30;;;;;;;-1.77;74.63;94436.97;5106119;28;20050;-71
2023/01/16 05:50:40;;;;;;;12.00;6.75;;;;;;;-1.76;74.49;94445.44;5070814;28;20430;-71
2023/01/16 05:53:06;;;;;;;11.57;6.20;;;;;;;-1.77;74.39;94428.50;5106322;28;20169;-70
2023/01/16 05:55:32;;;;;;;11.75;6.78;;;;;;;-1.69;74.65;94446.84;5107086;28;20031;-71
2023/01/16 05:57:57;;;;;;;14.00;7.97;;;;;;;-1.87;74.68;94413.59;5105931;28;20046;-69
2023/01/16 06:00:23;;;;;;;12.77;7.30;;;;;;;-1.53;74.52;94442.78;5107723;28;20032;-70
2023/01/16 06:02:48;;;;;;;12.70;7.55;;;;;;;-1.65;74.86;94441.56;5107903;28;20441;-70
2023/01/16 06:05:14;;;;;;;13.25;7.20;;;;;;;-1.63;74.95;94446.59;5091900;28;20015;-71
2023/01/16 06:07:41;;;;;;;17.70;11.15;;;;;;;-1.64;75.45;94443.22;5107782;28;20032;-71
2023/01/16 06:10:08;;;;;;;18.42;10.75;;;;;;;-1.50;74.99;94437.56;5071454;28;20509;-69
2023/01/16 06:12:33;;;;;;;20.92;11.68;;;;;;;-1.52;74.83;94443.59;5107678;28;20051;-71
2023/01/16 06:14:59;;;;;;;18.23;10.57;;;;;;;-1.53;74.79;94449.56;5088346;28;20040;-70
2023/01/16 06:17:24;;;;;;;20.77;11.93;;;;;;;-1.55;74.88;94446.28;5106224;28;20434;-70
2023/01/16 06:19:50;;;;;;;18.30;11.05;;;;;;;-1.51;74.75;94442.69;5086382;28;20027;-70
2023/01/16 06:22:15;;;;;;;21.73;11.35;;;;;;;-1.49;74.95;94431.56;5072318;28;20035;-70
2023/01/16 06:24:41;;;;;;;16.77;10.88;;;;;;;-1.32;75.29;94428.28;5071761;28;20526;-70
2023/01/16 06:27:06;;;;;;;34.50;17.83;;;;;;;-1.25;74.83;94413.59;5107957;28;20035;-70
2023/01/16 06:29:32;;;;;;;106.97;45.53;;;;;;;-1.16;74.78;94438.66;5073727;28;20048;-70
2023/01/16 06:31:57;;;;;;;30.70;15.88;;;;;;;-1.16;75.15;94436.13;5091618;28;20085;-71
2023/01/16 06:34:23;;;;;;;26.13;14.80;;;;;;;-1.18;74.89;94448.09;5088322;28;20032;-71
2023/01/16 06:36:49;;;;;;;31.77;19.08;;;;;;;-1.17;75.40;94431.91;5101560;28;20473;-70
2023/01/16 06:39:15;;;;;;;44.15;22.45;;;;;;;-1.22;75.13;94427.00;5090721;28;20421;-70
2023/01/16 06:41:40;;;;;;;45.88;24.30;;;;;;;-1.22;75.33;94446.59;5092259;28;20053;-69
2023/01/16 06:44:06;;;;;;;40.85;21.17;;;;;;;-1.12;75.50;94463.13;5075535;28;20046;-70
2023/01/16 06:46:31;;;;;;;38.65;22.00;;;;;;;-0.95;75.54;94463.25;5126711;28;20055;-70
2023/01/16 06:48:57;;;;;;;37.63;19.75;;;;;;;-0.88;76.00;94457.88;5110773;28;20073;-70
2023/01/16 06:51:22;;;;;;;35.67;19.38;;;;;;;-0.86;75.60;94463.72;5125537;28;20020;-70
2023/01/16 06:53:48;;;;;;;42.83;24.23;;;;;;;-0.94;75.80;94461.53;5087887;28;20044;-70
2023/01/16 06:56:13;;;;;;;40.65;22.83;;;;;;;-0.88;75.88;94434.91;5074789;28;20101;-69
2023/01/16 06:58:39;;;;;;;33.38;17.92;;;;;;;-0.96;76.84;94419.94;5071327;28;20085;-71
2023/01/16 07:01:04;;;;;;;27.30;15.63;;;;;;;-0.69;76.71;94420.44;5110634;28;20024;-70
2023/01/16 07:03:30;;;;;;;22.83;13.65;;;;;;;-0.59;77.06;94406.34;5107413;28;20035;-69
2023/01/16 07:05:55;;;;;;;27.27;14.65;;;;;;;-0.31;76.87;94430.59;5108494;28;20031;-73
2023/01/16 07:08:21;;;;;;;33.00;16.30;;;;;;;-0.23;76.89;94448.94;5126916;27;20036;-69
2023/01/16 07:10:46;;;;;;;32.15;16.98;;;;;;;-0.09;76.35;94445.75;5112171;27;20028;-69
2023/01/16 07:13:12;;;;;;;46.22;27.52;;;;;;;0.04;76.42;94438.34;5099907;28;20032;-70
2023/01/16 07:23:55;;;;;;;53.83;31.90;;;;;;;0.24;76.21;94416.94;5098259;28;20085;-70
2023/01/16 07:26:20;;;;;;;52.08;29.65;;;;;;;0.39;75.99;94422.13;5095413;28;20500;-72
2023/01/16 07:28:47;;;;;;;53.58;31.27;;;;;;;0.45;76.28;94418.44;5108721;28;20086;-71
2023/01/16 07:31:12;;;;;;;69.97;38.72;;;;;;;0.66;75.58;94424.19;5128366;27;20116;-70
2023/01/16 07:33:38;;;;;;;73.43;40.75;;;;;;;0.66;75.01;94414.78;5094411;28;20031;-70
2023/01/16 07:36:04;;;;;;;79.70;40.78;;;;;;;0.57;75.58;94415.28;5078271;28;20027;-70
2023/01/16 07:38:29;;;;;;;75.47;38.20;;;;;;;0.82;74.62;94421.69;5094198;28;20046;-69
2023/01/16 07:40:54;;;;;;;79.13;41.30;;;;;;;0.83;74.56;94410.56;5108147;28;20028;-71
2023/01/16 07:43:20;;;;;;;93.22;49.25;;;;;;;0.77;75.30;94410.88;5085268;28;20050;-72
2023/01/16 07:45:51;;;;;;;76.53;40.97;;;;;;;0.25;75.69;94362.38;5072555;28;20062;-71
2023/01/16 07:48:20;;;;;;;58.40;28.77;;;;;;;0.46;76.34;94398.81;5090250;28;20078;-67
2023/01/16 07:50:50;;;;;;;61.53;29.75;;;;;;;0.63;75.71;94398.78;5108797;28;20389;-68
2023/01/16 07:53:16;;;;;;;50.72;26.40;;;;;;;0.80;75.32;94413.28;5107023;28;20406;-68
2023/01/16 07:55:41;;;;;;;53.20;26.98;;;;;;;1.02;74.49;94407.88;5090622;28;20107;-69
2023/01/16 07:58:07;;;;;;;47.45;25.73;;;;;;;1.12;73.97;94403.94;5108645;28;20036;-71
2023/01/16 08:00:33;;;;;;;52.67;27.38;;;;;;;1.16;74.26;94396.94;5101351;28;20474;-70
2023/01/16 08:02:59;;;;;;;45.97;27.10;;;;;;;1.08;74.00;94380.22;5090675;28;20242;-69
2023/01/16 08:05:24;;;;;;;44.47;27.52;;;;;;;1.19;74.10;94379.66;5105080;28;20028;-69
2023/01/16 08:07:50;;;;;;;47.25;29.13;;;;;;;1.30;75.01;94382.47;5093397;28;20084;-71
2023/01/16 08:10:16;;;;;;;44.05;24.83;;;;;;;1.40;73.88;94366.66;5072751;28;20027;-72
2023/01/16 08:12:43;;;;;;;48.22;28.42;;;;;;;1.53;73.62;94371.03;5106009;28;20102;-74
2023/01/16 08:15:09;;;;;;;42.50;24.63;;;;;;;1.65;73.51;94369.53;5103995;27;20180;-73
2023/01/16 08:17:38;;;;;;;38.72;23.27;;;;;;;1.67;73.78;94365.16;5108542;27;20031;-70
2023/01/16 08:20:04;;;;;;;42.63;24.33;;;;;;;1.83;72.78;94348.91;5107233;27;20036;-71
2023/01/16 08:22:30;;;;;;;43.03;25.63;;;;;;;1.85;73.50;94354.78;5100068;28;20025;-72
2023/01/16 08:24:55;;;;;;;42.33;25.13;;;;;;;1.86;73.32;94366.66;5082988;28;20038;-71
2023/01/16 08:27:21;;;;;;;44.25;23.08;;;;;;;1.96;72.78;94378.06;5077002;28;20035;-68
2023/01/16 08:29:46;;;;;;;48.38;27.48;;;;;;;1.89;73.58;94390.38;5103909;27;20571;-69
2023/01/16 08:32:12;;;;;;;39.05;22.35;;;;;;;2.08;72.72;94374.81;5101327;28;20491;-70
2023/01/16 08:34:37;;;;;;;40.97;24.55;;;;;;;2.03;72.41;94371.66;5089317;28;20028;-69
2023/01/16 08:37:04;;;;;;;47.55;24.83;;;;;;;2.03;72.87;94370.84;5108093;28;20034;-68
2023/01/16 08:39:29;;;;;;;47.30;25.10;;;;;;;2.06;72.93;94383.47;5111290;28;20082;-68
2023/01/16 08:52:56;;;;;;;48.75;25.80;;;;;;;1.58;74.30;94285.44;5099597;28;20448;-70
2023/01/16 08:55:22;;;;;;;48.22;26.88;;;;;;;2.12;73.88;94345.53;5093490;28;20027;-69
2023/01/16 08:57:47;;;;;;;48.85;27.13;;;;;;;2.11;73.83;94333.63;5105865;28;20036;-70
2023/01/16 09:00:13;;;;;;;55.50;27.70;;;;;;;2.38;72.57;94330.38;5073442;28;20070;-72
2023/01/16 09:02:39;;;;;;;45.08;25.65;;;;;;;2.48;71.62;94334.06;5076694;28;20075;-71
2023/01/16 09:05:05;;;;;;;43.35;23.38;;;;;;;2.45;72.57;94339.34;5110511;28;20023;-69
2023/01/16 09:07:30;;;;;;;41.30;22.88;;;;;;;2.53;72.26;94336.34;5094062;28;20028;-71
2023/01/16 09:09:56;;;;;;;42.85;24.45;;;;;;;2.43;72.18;94311.25;5092687;28;20433;-69
2023/01/16 09:15:06;;;;;;;58.53;33.22;;;;;;;2.60;72.01;94328.22;5081347;28;20116;-68
2023/01/16 09:17:31;;;;;;;56.60;30.38;;;;;;;2.46;72.27;94312.81;5061717;28;20043;-70
2023/01/16 09:19:57;;;;;;;50.10;28.92;;;;;;;2.54;72.66;94318.31;5093447;28;20493;-69
2023/01/16 09:22:22;;;;;;;53.13;28.20;;;;;;;2.54;72.67;94305.50;5112162;28;20378;-66
2023/01/16 09:24:48;;;;;;;56.78;30.65;;;;;;;2.45;72.56;94293.19;5115274;27;20059;-68
2023/01/16 09:27:13;;;;;;;50.30;28.60;;;;;;;2.51;72.95;94292.00;5096891;28;20028;-69
2023/01/16 09:29:40;;;;;;;54.35;28.30;;;;;;;2.68;72.56;94307.25;5100981;28;20060;-70
2023/01/16 09:32:08;;;;;;;54.53;28.73;;;;;;;2.66;72.41;94297.06;5107727;28;20428;-70
2023/01/16 09:34:37;;;;;;;51.75;27.67;;;;;;;2.74;72.44;94282.97;5092086;28;20805;-70
2023/01/16 09:37:03;;;;;;;48.25;25.65;;;;;;;2.74;72.61;94299.16;5120021;27;20040;-70
2023/01/16 09:39:28;;;;;;;43.75;24.05;;;;;;;2.67;72.82;94291.03;5101191;27;20028;-70
2023/01/16 09:44:44;;;;;;;40.13;21.60;;;;;;;2.75;72.70;94282.84;5090819;28;20059;-70
2023/01/16 09:47:10;;;;;;;37.85;21.00;;;;;;;2.84;73.50;94284.03;5088536;28;20032;-70
2023/01/16 09:49:46;;;;;;;42.00;23.08;;;;;;;2.88;73.12;94263.22;5072414;28;20031;-68
2023/01/16 10:00:31;;;;;;;37.38;20.23;;;;;;;3.22;71.89;94248.31;5094143;28;20510;-68
2023/01/16 10:02:56;;;;;;;33.38;18.52;;;;;;;3.27;70.95;94237.75;5089428;28;20114;-68
2023/01/16 10:05:24;;;;;;;34.67;19.48;;;;;;;3.30;71.16;94247.81;5072727;28;20028;-70
2023/01/16 10:07:56;;;;;;;31.83;19.13;;;;;;;3.29;71.09;94233.34;5086633;28;20031;-70
2023/01/16 10:10:59;;;;;;;37.88;23.33;;;;;;;3.34;72.07;94241.56;5089659;28;20032;-70
2023/01/16 10:13:33;;;;;;;34.00;19.48;;;;;;;3.44;72.27;94234.09;5091493;28;20024;-69
2023/01/16 10:16:26;;;;;;;37.10;19.85;;;;;;;3.57;71.46;94232.41;5103485;28;20055;-68
2023/01/16 10:18:57;;;;;;;33.33;19.75;;;;;;;3.65;70.89;94219.03;5107837;28;20056;-69
2023/01/16 10:21:48;;;;;;;33.05;19.23;;;;;;;3.74;70.85;94219.28;5107421;28;20477;-69
2023/01/16 10:24:23;;;;;;;35.42;20.75;;;;;;;3.72;71.03;94205.72;5087779;28;20028;-69
2023/01/16 10:27:00;;;;;;;39.25;21.63;;;;;;;3.81;70.78;94206.84;5098115;28;20027;-68
2023/01/16 10:29:30;;;;;;;32.35;18.50;;;;;;;3.79;70.10;94195.88;5109299;28;20053;-69
2023/01/16 10:32:24;;;;;;;33.75;18.95;;;;;;;3.89;69.55;94191.75;5074501;28;20482;-69
2023/01/16 10:34:56;;;;;;;27.35;15.68;;;;;;;4.05;67.47;94186.41;5056402;28;20043;-69
2023/01/16 10:37:21;;;;;;;25.83;15.30;;;;;;;4.13;66.38;94166.16;5088796;28;20032;-69
2023/01/16 10:39:47;;;;;;;23.80;13.52;;;;;;;4.20;65.89;94169.94;5070416;28;20458;-69
2023/01/16 10:50:41;;;;;;;34.25;19.00;;;;;;;4.24;67.68;94152.56;5097556;28;20053;-68
2023/01/16 10:53:08;;;;;;;34.70;19.23;;;;;;;4.30;67.63;94141.03;5113280;28;20516;-69
2023/01/16 10:55:35;;;;;;;31.60;17.38;;;;;;;4.36;66.44;94138.03;5079347;28;20039;-69
2023/01/16 10:58:04;;;;;;;37.72;19.38;;;;;;;4.30;66.84;94129.00;5096216;28;20108;-69
2023/01/16 11:00:32;;;;;;;39.55;20.23;;;;;;;4.35;67.09;94139.78;5090660;28;20562;-69
2023/01/16 11:03:23;;;;;;;38.83;20.27;;;;;;;4.51;67.07;94125.84;5071496;28;20034;-68
2023/01/16 11:05:48;;;;;;;37.30;20.67;;;;;;;4.57;66.61;94115.13;5107403;28;20028;-69
2023/01/16 11:08:15;;;;;;;40.13;21.17;;;;;;;4.51;67.15;94100.94;5093144;28;20476;-69
2023/01/16 11:10:42;;;;;;;38.42;21.65;;;;;;;4.64;66.53;94098.34;5108255;28;20046;-69
2023/01/16 11:19:22;;;;;;;38.65;19.88;;;;;;;4.42;66.19;94081.84;5095084;28;20155;-72
2023/01/16 11:21:56;;;;;;;38.85;20.60;;;;;;;4.40;66.25;94077.72;5091282;28;20560;-70
2023/01/16 11:24:24;;;;;;;35.47;19.20;;;;;;;4.56;66.24;94090.34;5104536;28;20035;-71
2023/01/16 11:26:53;;;;;;;43.85;22.05;;;;;;;4.53;66.21;94081.09;5073327;28;20119;-71
2023/01/16 11:29:23;;;;;;;43.00;21.00;;;;;;;4.46;66.53;94062.72;5108180;28;20138;-71
2023/01/16 11:31:59;;;;;;;43.67;22.83;;;;;;;4.40;66.23;94083.72;5091797;28;20468;-71
2023/01/16 11:34:28;;;;;;;42.95;23.45;;;;;;;4.51;66.69;94085.50;5088601;28;20028;-71
2023/01/16 11:36:55;;;;;;;41.03;23.48;;;;;;;4.55;67.23;94075.84;5123560;27;20050;-71
2023/01/16 11:39:21;;;;;;;44.80;24.50;;;;;;;4.59;67.43;94079.84;5073249;28;20172;-72
2023/01/16 11:41:48;;;;;;;47.10;26.00;;;;;;;4.61;67.42;94065.94;5108870;28;20497;-71
2023/01/16 11:47:14;;;;;;;48.38;25.55;;;;;;;4.64;67.40;94072.63;5092835;27;20460;-69
2023/01/16 11:49:48;;;;;;;44.30;26.10;;;;;;;4.65;67.35;94066.53;5091381;28;20526;-71
2023/01/16 11:52:26;;;;;;;43.10;24.70;;;;;;;4.74;66.83;94042.72;5091503;28;20031;-72
2023/01/16 11:55:03;;;;;;;44.10;25.67;;;;;;;4.67;66.75;94054.38;5118713;27;20036;-72
2023/01/16 11:57:31;;;;;;;47.35;26.15;;;;;;;4.80;67.07;94052.59;5088715;27;20110;-70
2023/01/16 12:00:15;;;;;;;46.75;25.45;;;;;;;4.83;67.06;94049.78;5104357;28;20039;-70
2023/01/16 12:02:41;;;;;;;50.03;27.27;;;;;;;4.75;67.30;94033.25;5105039;27;20360;-73
2023/01/16 12:07:58;;;;;;;42.00;23.45;;;;;;;4.97;65.71;94024.78;5104829;28;20047;-71
2023/01/16 12:10:35;;;;;;;40.92;23.23;;;;;;;5.06;65.65;94024.94;5108321;28;20019;-71
2023/01/16 12:16:19;;;;;;;43.65;22.15;;;;;;;5.25;65.27;94026.97;5094114;28;20047;-71
2023/01/16 12:18:56;;;;;;;40.92;22.63;;;;;;;5.34;64.66;94004.84;5106265;28;20028;-71
2023/01/16 12:21:25;;;;;;;35.00;17.95;;;;;;;5.21;63.74;94012.69;5108106;28;20038;-71
2023/01/16 12:23:53;;;;;;;26.20;15.07;;;;;;;5.06;62.95;93991.47;5106732;28;20039;-70
2023/01/16 12:26:24;;;;;;;24.95;15.63;;;;;;;5.11;62.79;94006.56;5107640;28;20042;-71
2023/01/16 12:29:13;;;;;;;29.42;16.85;;;;;;;5.12;62.79;93995.34;5107775;28;20062;-71
2023/01/16 12:32:03;;;;;;;33.83;18.65;;;;;;;5.01;63.90;93985.00;5106137;28;20028;-71
2023/01/16 12:34:32;;;;;;;31.35;17.60;;;;;;;5.20;63.90;93980.13;5104678;28;20038;-71